Terminal Aerodrome Forecast
Issued by NWS Amarillo, TX

Home | Current Version | Previous Version | Text Only | Print | Product List | Glossary On
Versions: 1 2 3 4 5 6 7 8 9 10 11 12 13 14 15 16 17 18
000
FTUS44 KAMA 302213 AAA
TAFAMA
TAF AMD
KAMA 302213Z 3022/3118 VRB03KT 5SM HZ SKC
     FM310100 16007KT 5SM HZ SCT250
     FM311200 20012KT P6SM SCT250=

USA.gov is the U.S. government's official web portal to all federal, state and local government web resources and services.